Aérodrome :
LOGIN :

S'inscrire | Disclaimer

   EN    FR    IT 

 










Légende :    VFR   VFR Marginal   IFR   IFR Intensif   IFR Très Intensif
Visi : 
Plafond : 
>= 8 km
>= 3000ft
5 à 8 km
1000 à 3000 ft
1500m à 5 km
500 à 1000 ft
800 à 1500m
200 à 500 ft
< 800m
< 200 ft
Symboles :   Orages  Brouillard  Fortes neiges  Fortes précipitations  Vent > 20 kt
SIGMETs :   Divers  Orages  Givrage  Turbulence  Onde Orograph.  Cendres Volcan.






- Altitude de l'aérodrome : 348 ft
- Code IATA : STN


EGSS - London Stansted

DERNIER METAR :
  • 200950Z AUTO 08004KT 050V140 9999 FEW027 14/06 Q1018

METARs EXPIRÉS :
  • 200920Z AUTO VRB02KT 9999 FEW025 13/07 Q1018
  • 200850Z AUTO VRB03KT 9999 NCD 12/06 Q1018
  • 200820Z AUTO VRB02KT 9999 NCD 11/05 Q1018
  • 200750Z AUTO VRB02KT 9999 NCD 10/04 Q1018
  • 200720Z AUTO 32001KT 9999 NCD 09/03 Q1018

TAF AMD TAF EGSS
Valide du 20 à 09h jusqu'au 21 à 12h UTC


200923Z 2009/2112 12004KT 9999 FEW045
TEMPO 2022/2024 6000
PROB40
TEMPO 2022/2024 3000 BR
BECMG 2100/2103 3000 BR
PROB30 2100/2106 0300 FG BKN001
BECMG 2106/2109 04010KT 8000 NSW BKN006
BECMG 2109/2112 9999 FEW008 SCT030
ATIS : +44 1279 669 325



MET'MAP, la Météo Aéronautique d'un coup d'oeil ! - Copyright ORBIFLY Décembre 2007 - Disclaimer

ORBIFLY MET'MAP TEAM :

Programmation & Développement : Alexandra Zaïnal
Sur une idée originale de : Baudouin d'Aumeries
Assistance à la programmation : Marc-Olivier Méhu
Soutien technique & logistique : Manuel Goepfert

Contact : metmap@orbifly.com




SOURCES & CREDITS :

   NOAA